Time;durP1;ratioP1;P1;durP2;ratioP2;P2;SDS_P1;SDS_P2;PMS_P1;PMS_P2;Temp;Humidity;BMP_temperature;BMP_pressure;BME280_temperature;BME280_humidity;BME280_pressure;Samples;Min_cycle;Max_cycle;Signal;HPM_P1;HPM_P2
2022/01/19 00:01:22;;;;;;;0.85;0.73;;;;;;;16.85;36.75;101975.38;4231244;28;20043;-41
2022/01/19 00:03:24;;;;;;;1.20;1.10;;;;;;;16.87;36.69;101970.50;4231855;28;20100;-42
2022/01/19 00:05:25;;;;;;;1.35;0.80;;;;;;;16.93;36.83;101987.00;4231877;28;20552;-41
2022/01/19 00:07:27;;;;;;;0.88;0.80;;;;;;;16.98;36.46;101989.06;4231893;28;20096;-42
2022/01/19 00:09:28;;;;;;;1.42;0.98;;;;;;;17.01;36.67;101996.91;4231908;28;20092;-43
2022/01/19 00:11:29;;;;;;;2.95;1.10;;;;;;;17.05;36.83;102009.22;4225168;28;20054;-42
2022/01/19 00:13:31;;;;;;;3.92;1.10;;;;;;;17.08;36.53;102003.22;4222353;28;20096;-42
2022/01/19 00:15:33;;;;;;;0.98;0.82;;;;;;;17.14;36.46;102002.31;4229847;27;20052;-40
2022/01/19 00:17:34;;;;;;;2.63;1.15;;;;;;;17.23;36.37;101995.41;4237830;27;20092;-41
2022/01/19 00:19:35;;;;;;;2.38;0.93;;;;;;;17.30;36.44;101989.78;4243776;27;20384;-42
2022/01/19 00:21:37;;;;;;;1.08;0.98;;;;;;;17.39;36.05;102007.75;4244443;27;20046;-41
2022/01/19 00:23:38;;;;;;;2.65;1.00;;;;;;;17.46;36.31;102011.31;4241708;27;20111;-41
2022/01/19 00:25:39;;;;;;;1.83;1.00;;;;;;;17.53;36.06;102016.72;4249331;27;20034;-43
2022/01/19 00:27:41;;;;;;;2.50;0.93;;;;;;;17.55;36.35;102009.06;4248334;27;20478;-41
2022/01/19 00:29:45;;;;;;;1.52;0.70;;;;;;;17.60;35.88;102011.13;4249078;27;20424;-41
2022/01/19 00:31:46;;;;;;;1.20;0.98;;;;;;;17.61;35.95;102013.66;4229715;27;20043;-41
2022/01/19 00:33:47;;;;;;;1.00;0.80;;;;;;;17.63;36.20;102017.03;4231525;27;20044;-46
2022/01/19 00:35:50;;;;;;;2.80;1.02;;;;;;;17.66;36.05;102027.66;4244145;27;20112;-46
2022/01/19 00:37:51;;;;;;;2.05;1.15;;;;;;;17.68;36.20;102028.25;4236408;27;20374;-47
2022/01/19 00:39:56;;;;;;;1.13;0.95;;;;;;;17.64;36.21;102013.19;4230749;27;20092;-47
2022/01/19 00:41:58;;;;;;;1.35;0.90;;;;;;;17.72;36.31;102026.69;4224610;27;20425;-46
2022/01/19 00:43:59;;;;;;;1.40;0.90;;;;;;;17.76;36.64;102021.59;4235700;27;20476;-46
2022/01/19 00:46:01;;;;;;;2.92;1.00;;;;;;;17.77;36.49;102007.50;4245844;27;20043;-46
2022/01/19 00:48:02;;;;;;;1.60;0.80;;;;;;;17.79;36.78;102015.59;4239194;27;20371;-46
2022/01/19 00:50:06;;;;;;;1.75;0.77;;;;;;;17.82;36.49;102019.78;4239587;27;20039;-46
2022/01/19 00:52:07;;;;;;;3.35;0.93;;;;;;;17.81;36.53;102032.78;4245116;27;20578;-45
2022/01/19 00:54:09;;;;;;;1.27;1.00;;;;;;;17.84;36.78;102040.66;4245341;27;20043;-46
2022/01/19 00:56:10;;;;;;;1.25;0.90;;;;;;;17.83;37.02;102040.88;4243164;27;20040;-46
2022/01/19 00:58:12;;;;;;;2.58;0.98;;;;;;;17.84;36.69;102039.81;4220493;27;20108;-45
2022/01/19 01:00:19;;;;;;;1.08;0.90;;;;;;;17.84;37.05;102056.41;4227683;27;20032;-46
2022/01/19 01:02:20;;;;;;;1.20;0.80;;;;;;;17.86;37.29;102049.56;4229773;28;20177;-46
2022/01/19 01:04:21;;;;;;;1.15;0.93;;;;;;;17.85;37.37;102047.88;4225484;27;20097;-46
2022/01/19 01:06:26;;;;;;;1.50;0.88;;;;;;;17.87;37.16;102044.84;4244065;27;20042;-46
2022/01/19 01:08:27;;;;;;;1.77;0.88;;;;;;;17.86;37.52;102032.09;4240906;27;20040;-47
2022/01/19 01:10:30;;;;;;;1.35;0.93;;;;;;;17.88;37.34;102030.78;4230016;28;20108;-46
2022/01/19 01:12:48;;;;;;;2.65;1.05;;;;;;;17.83;37.45;102027.88;4216286;27;20097;-46
2022/01/19 01:17:13;;;;;;;2.20;1.05;;;;;;;17.91;37.72;102062.69;4228965;27;20093;-47
2022/01/19 01:19:14;;;;;;;;;;;;;;;17.89;37.44;102062.94;4231004;28;20100;-47
2022/01/19 01:21:15;;;;;;;2.00;1.15;;;;;;;17.96;37.46;102060.06;4230737;28;20278;-46
2022/01/19 01:23:19;;;;;;;2.13;0.95;;;;;;;17.97;37.22;102059.00;4239064;27;20042;-46
2022/01/19 01:25:21;;;;;;;3.42;1.20;;;;;;;17.97;37.37;102057.09;4248065;27;20088;-46
2022/01/19 01:27:23;;;;;;;1.52;1.17;;;;;;;17.90;36.97;102044.41;4248092;27;20035;-46
2022/01/19 01:29:24;;;;;;;2.38;1.00;;;;;;;17.93;37.17;102072.47;4248270;27;20019;-46
2022/01/19 01:31:25;;;;;;;1.48;1.33;;;;;;;17.92;36.80;102064.41;4247702;27;20043;-41
2022/01/19 01:33:27;;;;;;;1.27;1.15;;;;;;;17.93;36.79;102060.56;4248457;27;20047;-42
2022/01/19 01:35:32;;;;;;;1.98;1.15;;;;;;;17.87;36.83;102055.94;4239815;27;20043;-42
2022/01/19 01:37:33;;;;;;;1.80;1.35;;;;;;;17.92;36.68;102081.88;4231206;28;20032;-44
2022/01/19 01:39:35;;;;;;;1.73;1.60;;;;;;;17.93;36.61;102083.56;4230661;28;20431;-42
2022/01/19 01:41:36;;;;;;;3.45;1.70;;;;;;;17.95;36.98;102091.63;4231259;28;20100;-42
2022/01/19 01:43:38;;;;;;;3.60;1.58;;;;;;;17.91;37.03;102077.38;4230685;28;20065;-41
2022/01/19 01:45:44;;;;;;;4.28;1.88;;;;;;;17.93;36.70;102079.94;4230353;28;20043;-41
2022/01/19 01:47:51;;;;;;;2.10;1.70;;;;;;;17.94;36.95;102084.41;4230506;28;20043;-42
2022/01/19 01:54:14;;;;;;;2.33;1.70;;;;;;;17.92;36.81;102081.03;4215666;28;20073;-46
2022/01/19 01:56:17;;;;;;;4.57;2.10;;;;;;;17.91;36.88;102084.84;4223089;28;20104;-46
2022/01/19 01:58:23;;;;;;;2.35;1.70;;;;;;;17.91;36.71;102087.63;4231088;28;20532;-47
2022/01/19 02:00:26;;;;;;;4.47;1.80;;;;;;;17.88;36.90;102079.81;4230955;28;20085;-47
2022/01/19 02:02:27;;;;;;;2.75;1.88;;;;;;;17.87;36.72;102100.22;4230249;28;20171;-46
2022/01/19 02:04:30;;;;;;;3.83;1.80;;;;;;;17.86;36.85;102104.09;4230876;28;20035;-47
2022/01/19 02:06:37;;;;;;;2.60;2.10;;;;;;;17.86;36.88;102104.09;4230367;28;20100;-46
2022/01/19 02:08:45;;;;;;;3.35;2.45;;;;;;;17.83;36.83;102093.50;4230682;28;20036;-47
2022/01/19 02:22:40;;;;;;;7.53;2.47;;;;;;;17.78;37.89;102097.81;4248334;27;20080;-41
2022/01/19 02:24:45;;;;;;;4.32;2.05;;;;;;;17.78;37.86;102099.72;4247632;27;20095;-42
2022/01/19 02:40:23;;;;;;;5.30;2.15;;;;;;;17.71;38.75;102085.91;4230911;28;20135;-41
2022/01/19 02:42:26;;;;;;;3.47;1.90;;;;;;;17.73;38.99;102094.88;4230231;28;20081;-40
2022/01/19 02:44:39;;;;;;;3.70;1.80;;;;;;;17.70;39.21;102098.06;4230250;28;20436;-42
2022/01/19 02:49:10;;;;;;;9.77;2.75;;;;;;;17.71;39.57;102085.09;4230049;28;20043;-41
2022/01/19 02:49:18;;;;;;;3.95;2.10;;;;;;;17.53;39.52;102053.56;4229231;28;20463;-42
2022/01/19 02:51:20;;;;;;;4.47;2.13;;;;;;;17.71;39.74;102082.31;4229074;28;20047;-42
2022/01/19 02:53:21;;;;;;;2.38;1.70;;;;;;;17.71;39.78;102102.53;4223134;28;20040;-41
2022/01/19 02:55:23;;;;;;;2.40;1.70;;;;;;;17.66;39.70;102094.06;4213292;28;20109;-42
2022/01/19 02:57:26;;;;;;;7.30;2.22;;;;;;;17.68;40.17;102086.38;4214299;28;20085;-42
2022/01/19 03:08:50;;;;;;;2.47;1.65;;;;;;;17.67;40.51;102084.69;4222452;28;20020;-42
2022/01/19 03:10:51;;;;;;;7.22;1.92;;;;;;;17.63;40.86;102072.38;4233676;28;20180;-41
2022/01/19 03:12:52;;;;;;;3.13;1.88;;;;;;;17.66;41.14;102076.63;4232466;28;20113;-42
2022/01/19 03:14:54;;;;;;;2.83;1.73;;;;;;;17.66;41.20;102080.25;4217192;28;20093;-42
2022/01/19 03:16:55;;;;;;;5.70;2.40;;;;;;;17.66;41.01;102098.78;4222284;28;20039;-43
2022/01/19 03:18:57;;;;;;;4.40;2.25;;;;;;;17.63;41.59;102102.84;4221355;28;20516;-42
2022/01/19 03:20:58;;;;;;;4.95;1.85;;;;;;;17.63;41.43;102097.28;4232478;28;20487;-41
2022/01/19 03:25:02;;;;;;;5.45;2.10;;;;;;;17.63;41.88;102066.84;4233622;28;20032;-43
2022/01/19 03:27:04;;;;;;;5.30;2.00;;;;;;;17.64;42.60;102081.53;4226922;28;20073;-42
2022/01/19 03:29:05;;;;;;;5.65;2.10;;;;;;;17.65;43.32;102109.00;4229458;28;20047;-42
2022/01/19 03:31:07;;;;;;;3.05;2.10;;;;;;;17.68;44.93;102125.13;4230697;28;20039;-42
2022/01/19 03:33:08;;;;;;;4.53;1.80;;;;;;;17.71;45.27;102113.59;4225747;28;20040;-42
2022/01/19 03:35:14;;;;;;;4.80;2.25;;;;;;;17.67;45.69;102090.22;4216103;28;20047;-41
2022/01/19 03:37:15;;;;;;;3.65;2.00;;;;;;;17.73;46.41;102099.53;4216158;28;20473;-42
2022/01/19 03:39:17;;;;;;;3.70;1.80;;;;;;;17.73;46.06;102111.50;4231692;28;20031;-42
2022/01/19 03:41:18;;;;;;;4.47;2.10;;;;;;;17.73;45.88;102129.97;4229720;28;20044;-41
2022/01/19 03:43:19;;;;;;;4.43;2.80;;;;;;;17.75;45.56;102137.03;4221344;28;20463;-42
2022/01/19 03:45:21;;;;;;;3.40;2.22;;;;;;;17.74;45.33;102132.56;4231967;28;20043;-43
2022/01/19 03:47:22;;;;;;;4.47;2.35;;;;;;;17.74;45.42;102129.78;4221302;28;20116;-43
2022/01/19 03:49:26;;;;;;;4.50;2.50;;;;;;;17.71;45.04;102113.59;4215640;28;20048;-41
2022/01/19 03:51:27;;;;;;;6.20;2.45;;;;;;;17.73;44.83;102133.66;4217789;28;20475;-43
2022/01/19 03:53:32;;;;;;;4.20;2.30;;;;;;;17.72;44.94;102154.03;4231236;28;20043;-42
2022/01/19 03:55:33;;;;;;;4.25;2.42;;;;;;;17.73;44.80;102141.97;4215780;28;20036;-42
2022/01/19 03:57:35;;;;;;;8.40;2.67;;;;;;;17.73;44.48;102141.97;4226825;28;20204;-42
2022/01/19 03:59:37;;;;;;;4.68;2.92;;;;;;;17.72;44.55;102154.03;4214418;28;20081;-43
2022/01/19 04:01:38;;;;;;;4.75;2.72;;;;;;;17.70;44.21;102158.97;4228694;28;20112;-45
2022/01/19 04:07:54;;;;;;;8.95;3.60;;;;;;;17.73;44.11;102139.19;4230140;28;20464;-42
2022/01/19 04:09:55;;;;;;;4.40;3.00;;;;;;;17.74;43.70;102151.09;4231962;28;20119;-41
2022/01/19 04:11:57;;;;;;;11.23;3.33;;;;;;;17.72;43.43;102142.97;4222543;28;20376;-41
2022/01/19 04:16:09;;;;;;;4.68;3.17;;;;;;;17.68;43.53;102130.66;4249589;27;20027;-42
2022/01/19 04:18:10;;;;;;;4.50;3.27;;;;;;;17.67;43.15;102134.53;4234170;28;20371;-42
2022/01/19 04:20:12;;;;;;;7.15;3.22;;;;;;;17.66;43.10;102135.59;4232157;28;20044;-42
2022/01/19 04:22:19;;;;;;;5.63;3.78;;;;;;;17.64;43.08;102134.13;4232256;28;20077;-41
2022/01/19 04:24:24;;;;;;;5.82;3.42;;;;;;;17.63;42.71;102132.44;4232250;28;20048;-41
2022/01/19 04:26:25;;;;;;;;;;;;;;;17.59;42.78;102140.34;4232691;28;20479;-41
2022/01/19 04:28:26;;;;;;;6.53;3.83;;;;;;;17.66;42.53;102159.66;4231866;28;20412;-41
2022/01/19 04:30:29;;;;;;;6.05;3.22;;;;;;;17.63;42.38;102149.88;4247900;27;20044;-42
2022/01/19 04:32:42;;;;;;;6.68;3.70;;;;;;;17.62;42.13;102148.22;4248739;27;20039;-41
2022/01/19 04:34:45;;;;;;;8.23;3.17;;;;;;;17.58;42.30;102126.75;4231872;28;20051;-42
2022/01/19 04:37:20;;;;;;;6.90;3.38;;;;;;;17.57;42.25;102139.75;4232375;28;20475;-41
2022/01/19 04:43:46;;;;;;;5.57;3.10;;;;;;;17.58;42.08;102146.97;4232039;28;20047;-41
2022/01/19 05:04:54;;;;;;;5.13;2.92;;;;;;;17.56;40.45;102099.31;4216099;28;20105;-42
2022/01/19 05:07:37;;;;;;;3.92;2.58;;;;;;;17.56;40.40;102087.41;4225446;28;20112;-42
2022/01/19 05:13:56;;;;;;;3.55;2.88;;;;;;;17.52;40.04;102131.28;4232142;28;20096;-40
2022/01/19 05:15:57;;;;;;;6.25;2.90;;;;;;;17.50;40.16;102128.75;4230914;28;20040;-40
2022/01/19 05:17:59;;;;;;;5.18;3.13;;;;;;;17.51;40.27;102141.53;4230822;28;20216;-40
2022/01/19 05:20:00;;;;;;;3.72;2.70;;;;;;;17.49;39.86;102149.19;4230846;28;20085;-42
2022/01/19 05:22:02;;;;;;;4.32;2.80;;;;;;;17.46;39.98;102154.34;4229492;28;20104;-41
2022/01/19 05:24:06;;;;;;;2.63;2.10;;;;;;;17.47;39.87;102156.88;4231028;27;20044;-41
2022/01/19 05:26:10;;;;;;;3.47;2.60;;;;;;;17.46;40.06;102154.34;4231018;28;20104;-42
2022/01/19 05:28:12;;;;;;;2.92;2.58;;;;;;;17.45;39.96;102159.00;4230852;28;20040;-40
2022/01/19 05:30:15;;;;;;;3.90;2.65;;;;;;;17.44;39.67;102162.03;4229931;28;20440;-40
2022/01/19 05:32:16;;;;;;;3.20;2.50;;;;;;;17.42;39.86;102164.19;4231019;28;20080;-41
2022/01/19 05:34:17;;;;;;;3.83;2.58;;;;;;;17.43;39.90;102157.56;4230317;28;20466;-42
2022/01/19 05:36:19;;;;;;;4.75;2.53;;;;;;;17.39;39.86;102137.81;4230752;28;20544;-42
2022/01/19 05:38:20;;;;;;;3.40;2.53;;;;;;;17.40;39.49;102139.47;4230604;28;20104;-42
2022/01/19 05:40:22;;;;;;;4.13;2.38;;;;;;;17.39;39.44;102143.34;4230600;28;20039;-42
2022/01/19 05:42:23;;;;;;;3.20;2.38;;;;;;;17.36;39.39;102127.19;4230837;28;20100;-43
2022/01/19 05:44:25;;;;;;;3.22;2.50;;;;;;;17.37;39.40;102117.00;4212675;28;20476;-41
2022/01/19 05:46:26;;;;;;;3.13;2.80;;;;;;;17.36;39.20;102127.19;4230921;28;20044;-41
2022/01/19 05:48:27;;;;;;;7.90;2.33;;;;;;;17.36;39.49;102134.63;4230128;28;20047;-42
2022/01/19 05:50:29;;;;;;;4.45;2.70;;;;;;;17.35;39.05;102141.25;4230630;28;20069;-42
2022/01/19 05:52:30;;;;;;;2.95;2.05;;;;;;;17.34;39.38;102134.88;4230671;28;20188;-41
2022/01/19 05:54:34;;;;;;;3.33;2.40;;;;;;;17.32;39.27;102127.88;4230613;28;20036;-42
2022/01/19 05:56:38;;;;;;;3.60;2.63;;;;;;;17.33;39.17;102127.66;4231024;28;20035;-41
2022/01/19 05:58:40;;;;;;;3.10;1.95;;;;;;;17.34;39.29;102134.88;4230539;28;20039;-42
2022/01/19 06:00:41;;;;;;;2.72;2.47;;;;;;;17.34;39.12;102139.56;4213229;28;20044;-42
2022/01/19 06:02:42;;;;;;;3.60;2.72;;;;;;;17.27;38.84;102121.13;4214255;28;20024;-42
2022/01/19 06:04:44;;;;;;;3.08;2.55;;;;;;;17.31;38.94;102124.25;4213348;28;20544;-43
2022/01/19 06:06:45;;;;;;;3.30;2.50;;;;;;;17.32;38.65;102131.50;4213454;28;20040;-42
2022/01/19 06:08:59;;;;;;;3.10;2.10;;;;;;;17.28;38.87;102125.56;4212956;28;20113;-42
2022/01/19 06:11:00;;;;;;;2.95;1.95;;;;;;;17.30;38.60;102125.34;4223716;28;20401;-41
2022/01/19 06:13:02;;;;;;;3.97;2.08;;;;;;;17.30;38.80;102121.72;4229649;28;20039;-41
2022/01/19 06:15:03;;;;;;;3.60;2.40;;;;;;;17.31;38.87;102123.41;4229827;28;20084;-44
2022/01/19 06:17:07;;;;;;;3.28;2.35;;;;;;;17.30;38.47;102118.97;4229839;28;20043;-41
2022/01/19 06:19:08;;;;;;;3.78;2.17;;;;;;;17.30;38.35;102122.56;4229673;28;20432;-42
2022/01/19 06:21:10;;;;;;;3.45;2.10;;;;;;;17.28;38.31;102113.66;4230099;28;20035;-43
2022/01/19 06:23:11;;;;;;;2.60;2.00;;;;;;;17.29;38.51;102115.34;4230936;28;20097;-41
2022/01/19 06:25:15;;;;;;;3.53;2.20;;;;;;;17.30;38.66;102113.44;4229723;28;20039;-41
2022/01/19 06:27:17;;;;;;;3.50;2.15;;;;;;;17.28;38.16;102114.50;4229461;28;20039;-41
2022/01/19 06:29:18;;;;;;;3.67;2.00;;;;;;;17.25;38.25;102103.03;4229195;28;20035;-42
2022/01/19 06:31:20;;;;;;;3.47;2.10;;;;;;;17.26;38.24;102116.63;4229424;28;20476;-43
2022/01/19 06:33:21;;;;;;;3.90;2.30;;;;;;;17.26;38.23;102105.56;4230024;28;20048;-41
2022/01/19 06:35:29;;;;;;;4.00;2.30;;;;;;;17.23;38.11;102105.22;4229824;28;20085;-40
2022/01/19 06:37:30;;;;;;;5.40;2.20;;;;;;;17.26;38.28;102113.03;4230331;28;20532;-42
2022/01/19 06:39:32;;;;;;;2.80;2.00;;;;;;;17.24;38.07;102107.72;4229669;28;20467;-42
2022/01/19 06:41:36;;;;;;;3.30;2.45;;;;;;;17.22;38.50;102097.97;4233566;28;20040;-42
2022/01/19 06:43:37;;;;;;;3.85;2.40;;;;;;;17.21;38.43;102099.88;4233550;28;20101;-41
2022/01/19 06:45:39;;;;;;;2.45;1.80;;;;;;;17.20;38.34;102100.97;4234242;28;20035;-41
2022/01/19 06:47:40;;;;;;;3.15;2.50;;;;;;;17.21;38.26;102102.66;4233006;28;20393;-41
2022/01/19 06:49:42;;;;;;;3.00;2.10;;;;;;;17.20;38.15;102097.34;4229853;28;20036;-42
2022/01/19 06:51:43;;;;;;;3.58;2.10;;;;;;;17.21;38.31;102104.56;4233092;28;20090;-41
2022/01/19 06:53:44;;;;;;;2.70;2.28;;;;;;;17.17;38.35;102104.16;4234032;28;20096;-41
2022/01/19 06:55:46;;;;;;;3.33;2.05;;;;;;;17.20;38.23;102127.78;4246557;27;20043;-42
2022/01/19 06:57:47;;;;;;;2.35;1.95;;;;;;;17.18;37.89;102116.94;4250341;27;20204;-42
2022/01/19 06:59:51;;;;;;;3.22;2.20;;;;;;;17.12;37.98;102101.25;4250700;27;20019;-41
2022/01/19 07:01:52;;;;;;;2.92;2.15;;;;;;;17.16;38.13;102121.00;4250007;27;20111;-42
2022/01/19 07:03:53;;;;;;;4.20;2.20;;;;;;;17.16;38.18;102138.44;4251361;27;20076;-41
2022/01/19 07:05:57;;;;;;;4.18;2.17;;;;;;;17.16;37.81;102155.03;4250483;27;20039;-42
2022/01/19 07:07:59;;;;;;;2.42;1.98;;;;;;;17.15;38.15;102150.59;4250119;27;20191;-41
2022/01/19 07:10:00;;;;;;;2.95;2.65;;;;;;;17.11;38.07;102134.66;4250124;27;20100;-41
2022/01/19 07:12:02;;;;;;;2.20;1.80;;;;;;;17.13;38.05;102136.13;4250371;27;20039;-41
2022/01/19 07:14:05;;;;;;;2.80;1.85;;;;;;;17.10;37.58;102138.53;4249692;27;20043;-42
2022/01/19 07:16:09;;;;;;;3.85;2.20;;;;;;;17.12;37.59;102145.50;4250013;27;20035;-41
2022/01/19 07:18:10;;;;;;;2.17;1.73;;;;;;;17.12;37.77;102162.09;4232268;28;20044;-42
2022/01/19 07:20:12;;;;;;;2.10;1.60;;;;;;;17.10;38.09;102153.19;4249816;27;20554;-42
2022/01/19 07:22:15;;;;;;;2.83;2.15;;;;;;;17.10;37.79;102150.41;4249924;27;20380;-42
2022/01/19 07:24:17;;;;;;;2.20;1.92;;;;;;;17.10;37.92;102149.59;4250148;27;20107;-43
2022/01/19 07:26:18;;;;;;;2.40;1.98;;;;;;;17.10;37.60;102155.13;4250129;27;20108;-41
2022/01/19 07:28:22;;;;;;;2.38;2.00;;;;;;;17.08;37.79;102160.84;4249540;27;20047;-42
2022/01/19 07:30:25;;;;;;;2.40;2.08;;;;;;;17.08;37.91;102158.09;4249166;27;20051;-41
2022/01/19 07:32:30;;;;;;;3.47;1.92;;;;;;;17.03;37.77;102149.63;4249828;27;20031;-41
2022/01/19 07:34:32;;;;;;;2.42;1.70;;;;;;;17.06;37.61;102165.78;4249576;27;20043;-41
2022/01/19 07:36:33;;;;;;;3.80;2.15;;;;;;;17.07;37.59;102178.53;4249787;27;20047;-40
2022/01/19 07:38:35;;;;;;;3.47;2.22;;;;;;;17.05;37.63;102175.16;4246205;27;20088;-41
2022/01/19 07:40:36;;;;;;;2.17;1.92;;;;;;;17.04;37.54;102165.13;4215772;28;20040;-43
2022/01/19 07:42:38;;;;;;;2.25;1.88;;;;;;;17.03;37.47;102175.34;4219127;28;20036;-43
2022/01/19 07:44:40;;;;;;;3.75;2.00;;;;;;;17.03;37.63;102175.34;4232768;28;20055;-43
2022/01/19 07:46:42;;;;;;;2.55;1.83;;;;;;;17.04;37.55;102165.13;4233304;28;20028;-41
2022/01/19 07:48:44;;;;;;;4.47;2.10;;;;;;;17.02;37.49;102156.22;4229679;28;20112;-41
2022/01/19 07:50:46;;;;;;;2.08;1.88;;;;;;;17.01;37.54;102169.22;4219520;28;20101;-41
2022/01/19 07:52:47;;;;;;;1.92;1.73;;;;;;;17.00;37.49;102172.22;4248065;27;20420;-40
2022/01/19 07:54:50;;;;;;;2.47;1.88;;;;;;;17.00;37.34;102177.75;4243962;27;20019;-41
2022/01/19 07:56:51;;;;;;;4.35;1.90;;;;;;;16.93;37.62;102154.81;4225107;28;20048;-41
2022/01/19 07:58:53;;;;;;;2.22;1.80;;;;;;;16.99;37.59;102159.44;4216375;28;20356;-41
2022/01/19 08:00:54;;;;;;;2.45;1.90;;;;;;;16.92;37.51;102126.31;4217179;28;20047;-42
2022/01/19 08:02:55;;;;;;;1.83;1.67;;;;;;;16.96;37.65;102148.84;4239259;27;20035;-41
2022/01/19 08:04:57;;;;;;;2.78;2.00;;;;;;;16.97;37.58;102142.22;4242605;27;20040;-41
2022/01/19 08:06:58;;;;;;;2.90;1.90;;;;;;;16.97;37.28;102128.41;4225404;28;20043;-41
2022/01/19 08:08:59;;;;;;;2.70;1.90;;;;;;;16.96;37.26;102126.72;4236835;27;20079;-42
2022/01/19 08:11:04;;;;;;;2.10;1.90;;;;;;;16.95;37.28;102127.78;4249182;27;20039;-46
2022/01/19 08:13:06;;;;;;;2.65;2.08;;;;;;;16.95;37.35;102130.53;4240513;27;20432;-42
2022/01/19 08:15:08;;;;;;;1.98;1.77;;;;;;;16.95;37.38;102136.94;4227320;28;20527;-41
2022/01/19 08:17:11;;;;;;;2.05;1.85;;;;;;;16.94;37.19;102139.91;4232364;27;20039;-42
2022/01/19 08:19:12;;;;;;;2.78;1.83;;;;;;;16.94;37.38;102142.69;4231097;28;20578;-42
2022/01/19 08:21:14;;;;;;;2.13;1.85;;;;;;;16.92;37.12;102137.38;4240848;27;20035;-41
2022/01/19 08:23:15;;;;;;;2.42;1.90;;;;;;;16.92;37.23;102131.84;4232160;28;20199;-42
2022/01/19 08:25:17;;;;;;;2.10;1.80;;;;;;;16.91;37.48;102132.09;4232013;28;20036;-40
2022/01/19 08:27:18;;;;;;;2.00;1.75;;;;;;;16.91;37.13;102129.31;4221473;28;20527;-44
2022/01/19 08:29:20;;;;;;;2.53;1.95;;;;;;;16.90;37.45;102111.00;4231491;28;20096;-41
2022/01/19 08:31:21;;;;;;;2.53;2.05;;;;;;;16.90;37.54;102119.31;4232132;28;20471;-41
2022/01/19 08:33:23;;;;;;;2.45;2.00;;;;;;;16.88;37.40;102122.31;4240219;27;20092;-41
2022/01/19 08:35:39;;;;;;;2.55;1.75;;;;;;;16.89;37.47;102106.56;4249015;27;20035;-40
2022/01/19 08:37:43;;;;;;;2.78;2.20;;;;;;;16.87;37.35;102111.50;4248985;27;20502;-42
2022/01/19 08:39:45;;;;;;;2.13;1.80;;;;;;;16.86;37.35;102115.28;4248674;27;20074;-41
2022/01/19 08:41:46;;;;;;;2.95;2.10;;;;;;;16.87;37.37;102128.06;4229281;27;20089;-42
2022/01/19 08:43:48;;;;;;;2.83;2.15;;;;;;;16.87;37.30;102105.97;4223432;28;20152;-41
2022/01/19 08:45:52;;;;;;;2.22;1.92;;;;;;;16.82;36.96;102101.09;4228329;28;20043;-41
2022/01/19 08:47:54;;;;;;;2.28;2.00;;;;;;;16.86;37.09;102109.78;4231956;28;20037;-40
2022/01/19 08:49:55;;;;;;;2.42;1.83;;;;;;;16.83;37.22;102113.00;4225235;28;20039;-41
2022/01/19 08:51:57;;;;;;;2.67;1.85;;;;;;;16.85;37.18;102119.16;4215033;28;20097;-42
2022/01/19 08:53:59;;;;;;;2.30;1.90;;;;;;;16.83;37.01;102104.72;4225870;28;20076;-42
2022/01/19 08:56:00;;;;;;;2.83;1.95;;;;;;;16.81;37.01;102095.78;4247110;27;20039;-43
2022/01/19 08:58:03;;;;;;;2.55;1.88;;;;;;;16.84;37.08;102111.94;4231041;27;20039;-41
2022/01/19 09:00:12;;;;;;;4.32;2.20;;;;;;;16.82;37.01;102109.41;4244191;27;20043;-41
2022/01/19 09:02:13;;;;;;;2.83;1.85;;;;;;;16.81;37.27;102112.38;4248587;27;20042;-42
2022/01/19 09:04:14;;;;;;;3.13;2.00;;;;;;;16.78;37.02;102108.16;4234404;27;20425;-42
2022/01/19 09:06:16;;;;;;;2.00;1.80;;;;;;;16.80;37.17;102107.91;4232050;28;20069;-43
2022/01/19 09:08:17;;;;;;;2.17;1.98;;;;;;;16.73;37.40;102106.06;4213680;28;20048;-42
2022/01/19 09:10:21;;;;;;;2.25;1.83;;;;;;;16.65;37.21;102098.00;4231495;28;20097;-41
2022/01/19 09:12:22;;;;;;;2.17;1.77;;;;;;;16.62;37.84;102101.22;4231483;28;20047;-42
2022/01/19 09:14:23;;;;;;;2.17;1.88;;;;;;;16.59;37.79;102098.06;4213381;28;20593;-42
2022/01/19 09:16:27;;;;;;;2.10;1.90;;;;;;;16.57;37.65;102094.66;4245934;27;20032;-41
2022/01/19 09:18:28;;;;;;;1.80;1.60;;;;;;;16.60;37.71;102103.34;4248006;27;20039;-40
2022/01/19 09:20:30;;;;;;;3.03;2.05;;;;;;;16.60;37.81;102089.53;4248190;27;20084;-40
2022/01/19 09:22:32;;;;;;;2.33;2.08;;;;;;;16.60;37.75;102092.31;4248847;27;20076;-40
2022/01/19 09:24:35;;;;;;;3.33;2.15;;;;;;;16.62;37.66;102092.06;4248196;27;20031;-42
2022/01/19 09:26:37;;;;;;;2.17;1.88;;;;;;;16.63;37.78;102089.09;4248952;27;20031;-41
2022/01/19 09:28:39;;;;;;;2.53;1.90;;;;;;;16.64;37.39;102074.22;4247789;27;20082;-41
2022/01/19 09:30:41;;;;;;;3.15;1.92;;;;;;;16.65;37.56;102075.91;4248065;27;20087;-41
2022/01/19 09:32:45;;;;;;;2.33;1.70;;;;;;;16.68;37.33;102074.63;4215589;28;20074;-41
2022/01/19 09:34:54;;;;;;;2.35;2.13;;;;;;;16.64;37.31;102052.09;4230466;28;20100;-41
2022/01/19 09:36:55;;;;;;;1.70;1.58;;;;;;;16.71;37.25;102050.09;4230504;28;20084;-41
2022/01/19 09:38:57;;;;;;;2.33;1.88;;;;;;;16.75;37.13;102051.38;4229729;28;20401;-41
2022/01/19 09:40:59;;;;;;;1.85;1.52;;;;;;;16.74;37.34;102035.03;4230378;28;20043;-41
2022/01/19 09:43:00;;;;;;;1.95;1.70;;;;;;;16.83;37.22;102032.84;4230955;28;20408;-40
2022/01/19 09:45:03;;;;;;;3.25;1.77;;;;;;;16.85;37.26;102036.19;4196157;28;20040;-41
2022/01/19 09:47:05;;;;;;;2.08;1.88;;;;;;;16.81;36.72;102018.38;4230080;28;20051;-42
2022/01/19 09:49:07;;;;;;;2.25;1.80;;;;;;;16.90;36.69;102023.38;4229789;28;20043;-42
2022/01/19 09:51:09;;;;;;;2.20;1.83;;;;;;;16.92;36.62;102024.03;4230541;28;20044;-42
2022/01/19 09:53:11;;;;;;;2.08;1.80;;;;;;;16.93;36.61;102022.94;4246183;27;20095;-41
2022/01/19 09:55:15;;;;;;;2.38;2.17;;;;;;;16.90;36.54;102019.78;4247969;27;20035;-43
2022/01/19 09:57:17;;;;;;;2.20;1.90;;;;;;;16.97;36.61;102029.72;4247816;27;20050;-42
2022/01/19 09:59:18;;;;;;;2.72;1.98;;;;;;;16.98;36.18;102045.22;4230280;27;20039;-42
2022/01/19 10:01:25;;;;;;;2.75;1.95;;;;;;;16.99;36.36;102035.00;4243565;27;20043;-40
2022/01/19 10:03:32;;;;;;;2.53;1.90;;;;;;;17.01;36.32;102046.69;4242153;27;20482;-41
2022/01/19 10:05:34;;;;;;;2.05;1.70;;;;;;;17.02;36.04;102042.84;4229336;28;20493;-40
2022/01/19 10:07:38;;;;;;;3.22;1.58;;;;;;;16.98;36.29;102036.09;4215628;28;20047;-41
2022/01/19 10:09:54;;;;;;;2.33;1.77;;;;;;;17.04;35.99;102043.44;4214424;28;20040;-43
2022/01/19 10:17:06;;;;;;;1.85;1.70;;;;;;;17.06;36.27;102010.91;4233268;27;20099;-42
2022/01/19 10:19:20;;;;;;;2.17;1.77;;;;;;;17.00;36.28;102000.78;4247069;27;20080;-39
2022/01/19 10:21:21;;;;;;;2.75;1.83;;;;;;;17.06;36.06;102016.44;4218383;28;20044;-42
2022/01/19 10:23:45;;;;;;;2.45;1.77;;;;;;;17.05;36.33;102014.75;4230078;28;20040;-41
2022/01/19 10:25:49;;;;;;;2.58;1.90;;;;;;;17.07;35.88;102017.28;4230492;28;20475;-42
2022/01/19 10:27:50;;;;;;;2.75;1.80;;;;;;;17.07;36.24;102034.72;4230478;28;20039;-41
2022/01/19 10:30:06;;;;;;;2.13;1.92;;;;;;;17.06;36.16;102026.66;4229788;28;20048;-41
2022/01/19 10:32:07;;;;;;;;;;;;;;;17.06;35.88;102033.03;4230737;28;20092;-41
2022/01/19 10:34:21;;;;;;;1.92;1.73;;;;;;;17.08;35.86;102016.19;4246212;27;19960;-41
2022/01/19 10:36:41;;;;;;;2.53;1.80;;;;;;;17.09;36.16;102027.06;4246574;27;20035;-41
2022/01/19 10:38:42;;;;;;;2.97;1.90;;;;;;;17.07;36.14;102045.78;4246580;28;20100;-46
2022/01/19 10:41:04;;;;;;;2.30;1.88;;;;;;;17.03;36.00;102033.47;4247914;28;20412;-44
2022/01/19 10:43:47;;;;;;;2.00;1.83;;;;;;;17.06;36.23;102033.03;4247182;28;20047;-45
2022/01/19 10:45:49;;;;;;;2.38;1.83;;;;;;;17.10;35.82;102038.94;4178780;28;20037;-45
2022/01/19 10:47:56;;;;;;;2.55;1.90;;;;;;;17.08;35.81;102035.56;4178086;28;20099;-45
2022/01/19 10:49:57;;;;;;;2.40;1.85;;;;;;;17.10;36.08;102044.47;4179379;28;20045;-46
2022/01/19 10:51:59;;;;;;;5.93;1.83;;;;;;;17.08;35.97;102030.03;4246816;28;20118;-46
2022/01/19 10:54:16;;;;;;;2.85;1.70;;;;;;;17.09;35.99;102020.66;4246996;28;20136;-46
2022/01/19 10:56:24;;;;;;;2.65;1.80;;;;;;;17.10;36.13;102027.88;4247196;28;20416;-45
2022/01/19 10:58:28;;;;;;;2.25;2.05;;;;;;;17.10;36.07;102031.50;4246683;28;20031;-47